sensor_id;sensor_type;location;lat;lon;timestamp;P1;durP1;ratioP1;P2;durP2;ratioP2
529;SDS011;251;48.704;9.210;2022-11-14T00:00:43;7.97;;;4.25;;
529;SDS011;251;48.704;9.210;2022-11-14T00:03:29;4.05;;;3.63;;
529;SDS011;251;48.704;9.210;2022-11-14T00:06:14;4.32;;;3.92;;
529;SDS011;251;48.704;9.210;2022-11-14T00:09:00;6.10;;;5.15;;
529;SDS011;251;48.704;9.210;2022-11-14T00:11:46;8.05;;;3.83;;
529;SDS011;251;48.704;9.210;2022-11-14T00:14:32;5.32;;;4.75;;
529;SDS011;251;48.704;9.210;2022-11-14T00:17:17;7.45;;;4.45;;
529;SDS011;251;48.704;9.210;2022-11-14T00:20:03;7.10;;;4.60;;
529;SDS011;251;48.704;9.210;2022-11-14T00:22:50;4.20;;;2.55;;
529;SDS011;251;48.704;9.210;2022-11-14T00:25:35;4.18;;;2.85;;
529;SDS011;251;48.704;9.210;2022-11-14T00:28:22;6.80;;;4.57;;
529;SDS011;251;48.704;9.210;2022-11-14T00:31:08;5.30;;;3.72;;
529;SDS011;251;48.704;9.210;2022-11-14T00:33:53;4.28;;;2.75;;
529;SDS011;251;48.704;9.210;2022-11-14T00:36:38;8.10;;;4.07;;
529;SDS011;251;48.704;9.210;2022-11-14T00:39:24;4.00;;;3.22;;
529;SDS011;251;48.704;9.210;2022-11-14T00:42:10;9.20;;;6.28;;
529;SDS011;251;48.704;9.210;2022-11-14T00:44:56;4.28;;;3.20;;
529;SDS011;251;48.704;9.210;2022-11-14T00:47:42;3.92;;;2.88;;
529;SDS011;251;48.704;9.210;2022-11-14T00:50:27;5.28;;;4.47;;
529;SDS011;251;48.704;9.210;2022-11-14T00:53:13;8.48;;;3.72;;
529;SDS011;251;48.704;9.210;2022-11-14T00:55:59;7.18;;;3.97;;
529;SDS011;251;48.704;9.210;2022-11-14T00:58:44;5.47;;;3.47;;
529;SDS011;251;48.704;9.210;2022-11-14T01:01:31;4.55;;;3.08;;
529;SDS011;251;48.704;9.210;2022-11-14T01:04:17;7.88;;;4.82;;
529;SDS011;251;48.704;9.210;2022-11-14T01:07:02;5.80;;;4.65;;
529;SDS011;251;48.704;9.210;2022-11-14T01:09:48;6.82;;;3.92;;
529;SDS011;251;48.704;9.210;2022-11-14T01:12:33;6.78;;;4.60;;
529;SDS011;251;48.704;9.210;2022-11-14T01:15:19;7.15;;;4.70;;
529;SDS011;251;48.704;9.210;2022-11-14T01:18:06;5.07;;;4.50;;
529;SDS011;251;48.704;9.210;2022-11-14T01:20:51;11.63;;;7.75;;
529;SDS011;251;48.704;9.210;2022-11-14T01:23:37;7.38;;;5.90;;
529;SDS011;251;48.704;9.210;2022-11-14T01:26:23;9.15;;;5.72;;
529;SDS011;251;48.704;9.210;2022-11-14T01:29:09;7.63;;;3.95;;
529;SDS011;251;48.704;9.210;2022-11-14T01:31:54;7.28;;;4.90;;
529;SDS011;251;48.704;9.210;2022-11-14T01:34:42;4.25;;;3.13;;
529;SDS011;251;48.704;9.210;2022-11-14T01:37:27;6.00;;;3.83;;
529;SDS011;251;48.704;9.210;2022-11-14T01:40:13;6.63;;;3.75;;
529;SDS011;251;48.704;9.210;2022-11-14T01:43:14;7.13;;;4.28;;
529;SDS011;251;48.704;9.210;2022-11-14T01:46:11;4.90;;;4.05;;
529;SDS011;251;48.704;9.210;2022-11-14T01:48:59;4.90;;;3.17;;
529;SDS011;251;48.704;9.210;2022-11-14T01:51:50;4.90;;;3.30;;
529;SDS011;251;48.704;9.210;2022-11-14T01:54:41;5.10;;;3.15;;
529;SDS011;251;48.704;9.210;2022-11-14T01:57:30;6.32;;;4.20;;
529;SDS011;251;48.704;9.210;2022-11-14T02:00:18;6.75;;;2.83;;
529;SDS011;251;48.704;9.210;2022-11-14T02:03:04;4.97;;;3.30;;
529;SDS011;251;48.704;9.210;2022-11-14T02:05:49;5.22;;;2.72;;
529;SDS011;251;48.704;9.210;2022-11-14T02:08:38;6.68;;;4.57;;
529;SDS011;251;48.704;9.210;2022-11-14T02:11:26;6.38;;;3.47;;
529;SDS011;251;48.704;9.210;2022-11-14T02:14:14;4.90;;;3.03;;
529;SDS011;251;48.704;9.210;2022-11-14T02:16:59;4.63;;;2.40;;
529;SDS011;251;48.704;9.210;2022-11-14T02:19:46;5.63;;;3.20;;
529;SDS011;251;48.704;9.210;2022-11-14T02:22:34;5.80;;;2.67;;
529;SDS011;251;48.704;9.210;2022-11-14T02:25:20;3.65;;;3.05;;
529;SDS011;251;48.704;9.210;2022-11-14T02:28:06;5.82;;;2.75;;
529;SDS011;251;48.704;9.210;2022-11-14T02:30:54;4.35;;;2.75;;
529;SDS011;251;48.704;9.210;2022-11-14T02:33:39;4.57;;;3.08;;
529;SDS011;251;48.704;9.210;2022-11-14T02:36:25;4.40;;;3.78;;
529;SDS011;251;48.704;9.210;2022-11-14T02:39:12;5.90;;;4.13;;
529;SDS011;251;48.704;9.210;2022-11-14T02:41:58;6.95;;;4.05;;
529;SDS011;251;48.704;9.210;2022-11-14T02:44:44;9.00;;;3.20;;
529;SDS011;251;48.704;9.210;2022-11-14T02:47:29;4.63;;;3.45;;
529;SDS011;251;48.704;9.210;2022-11-14T02:50:15;7.05;;;4.57;;
529;SDS011;251;48.704;9.210;2022-11-14T02:53:01;4.85;;;3.78;;
529;SDS011;251;48.704;9.210;2022-11-14T02:55:47;3.72;;;2.92;;
529;SDS011;251;48.704;9.210;2022-11-14T02:58:33;4.88;;;3.38;;
529;SDS011;251;48.704;9.210;2022-11-14T03:01:19;4.55;;;3.35;;
529;SDS011;251;48.704;9.210;2022-11-14T03:04:04;4.93;;;3.42;;
529;SDS011;251;48.704;9.210;2022-11-14T03:06:50;5.78;;;3.60;;
529;SDS011;251;48.704;9.210;2022-11-14T03:09:35;7.78;;;4.45;;
529;SDS011;251;48.704;9.210;2022-11-14T03:12:22;2.95;;;2.35;;
529;SDS011;251;48.704;9.210;2022-11-14T03:15:08;4.47;;;3.28;;
529;SDS011;251;48.704;9.210;2022-11-14T03:17:53;5.03;;;3.45;;
529;SDS011;251;48.704;9.210;2022-11-14T03:20:39;4.75;;;3.80;;
529;SDS011;251;48.704;9.210;2022-11-14T03:23:24;4.55;;;3.55;;
529;SDS011;251;48.704;9.210;2022-11-14T03:26:10;5.70;;;4.78;;
529;SDS011;251;48.704;9.210;2022-11-14T03:28:58;6.20;;;3.55;;
529;SDS011;251;48.704;9.210;2022-11-14T03:31:43;8.57;;;7.60;;
529;SDS011;251;48.704;9.210;2022-11-14T03:34:28;5.25;;;3.83;;
529;SDS011;251;48.704;9.210;2022-11-14T03:37:14;4.90;;;4.28;;
529;SDS011;251;48.704;9.210;2022-11-14T03:40:00;7.53;;;3.80;;
529;SDS011;251;48.704;9.210;2022-11-14T03:42:45;7.55;;;3.65;;
529;SDS011;251;48.704;9.210;2022-11-14T03:45:32;6.43;;;4.82;;
529;SDS011;251;48.704;9.210;2022-11-14T03:48:17;7.47;;;4.85;;
529;SDS011;251;48.704;9.210;2022-11-14T03:51:03;5.72;;;4.15;;
529;SDS011;251;48.704;9.210;2022-11-14T03:53:48;6.10;;;3.55;;
529;SDS011;251;48.704;9.210;2022-11-14T03:56:33;6.80;;;4.93;;
529;SDS011;251;48.704;9.210;2022-11-14T03:59:19;8.40;;;6.65;;
529;SDS011;251;48.704;9.210;2022-11-14T04:02:06;5.03;;;3.92;;
529;SDS011;251;48.704;9.210;2022-11-14T04:04:52;6.55;;;4.13;;
529;SDS011;251;48.704;9.210;2022-11-14T04:07:37;6.13;;;4.50;;
529;SDS011;251;48.704;9.210;2022-11-14T04:10:22;7.38;;;4.85;;
529;SDS011;251;48.704;9.210;2022-11-14T04:13:08;9.13;;;6.32;;
529;SDS011;251;48.704;9.210;2022-11-14T04:15:54;5.20;;;3.80;;
529;SDS011;251;48.704;9.210;2022-11-14T04:18:42;5.00;;;3.28;;
529;SDS011;251;48.704;9.210;2022-11-14T04:21:27;4.57;;;2.80;;
529;SDS011;251;48.704;9.210;2022-11-14T04:24:13;6.72;;;3.67;;
529;SDS011;251;48.704;9.210;2022-11-14T04:26:58;8.80;;;5.38;;
529;SDS011;251;48.704;9.210;2022-11-14T04:29:44;12.15;;;7.00;;
529;SDS011;251;48.704;9.210;2022-11-14T04:32:29;4.88;;;4.38;;
529;SDS011;251;48.704;9.210;2022-11-14T04:35:16;7.05;;;4.63;;
529;SDS011;251;48.704;9.210;2022-11-14T04:38:01;4.93;;;4.43;;
529;SDS011;251;48.704;9.210;2022-11-14T04:40:47;8.15;;;5.00;;
529;SDS011;251;48.704;9.210;2022-11-14T04:43:33;12.30;;;8.48;;
529;SDS011;251;48.704;9.210;2022-11-14T04:46:19;7.70;;;6.05;;
529;SDS011;251;48.704;9.210;2022-11-14T04:49:05;6.57;;;3.42;;
529;SDS011;251;48.704;9.210;2022-11-14T04:51:52;5.60;;;4.40;;
529;SDS011;251;48.704;9.210;2022-11-14T04:54:37;6.18;;;3.92;;
529;SDS011;251;48.704;9.210;2022-11-14T04:57:22;6.78;;;4.38;;
529;SDS011;251;48.704;9.210;2022-11-14T05:00:08;4.57;;;3.58;;
529;SDS011;251;48.704;9.210;2022-11-14T05:02:57;7.78;;;3.95;;
529;SDS011;251;48.704;9.210;2022-11-14T05:05:42;9.25;;;3.70;;
529;SDS011;251;48.704;9.210;2022-11-14T05:08:29;6.03;;;4.43;;
529;SDS011;251;48.704;9.210;2022-11-14T05:11:15;6.18;;;4.20;;
529;SDS011;251;48.704;9.210;2022-11-14T05:14:01;4.45;;;3.95;;
529;SDS011;251;48.704;9.210;2022-11-14T05:16:46;10.82;;;5.80;;
529;SDS011;251;48.704;9.210;2022-11-14T05:19:32;5.82;;;3.88;;
529;SDS011;251;48.704;9.210;2022-11-14T05:22:17;6.97;;;4.00;;
529;SDS011;251;48.704;9.210;2022-11-14T05:25:05;3.95;;;3.60;;
529;SDS011;251;48.704;9.210;2022-11-14T05:27:51;7.38;;;3.20;;
529;SDS011;251;48.704;9.210;2022-11-14T05:30:39;6.30;;;4.00;;
529;SDS011;251;48.704;9.210;2022-11-14T05:33:25;4.82;;;3.20;;
529;SDS011;251;48.704;9.210;2022-11-14T05:36:11;4.88;;;3.50;;
529;SDS011;251;48.704;9.210;2022-11-14T05:38:58;4.85;;;3.70;;
529;SDS011;251;48.704;9.210;2022-11-14T05:41:45;3.78;;;3.30;;
529;SDS011;251;48.704;9.210;2022-11-14T05:44:30;4.80;;;3.83;;
529;SDS011;251;48.704;9.210;2022-11-14T05:47:16;5.60;;;3.92;;
529;SDS011;251;48.704;9.210;2022-11-14T05:50:01;9.27;;;6.47;;
529;SDS011;251;48.704;9.210;2022-11-14T05:52:47;6.00;;;3.55;;
529;SDS011;251;48.704;9.210;2022-11-14T05:55:33;4.35;;;3.40;;
529;SDS011;251;48.704;9.210;2022-11-14T05:58:19;4.88;;;3.00;;
529;SDS011;251;48.704;9.210;2022-11-14T06:01:06;6.93;;;4.70;;
529;SDS011;251;48.704;9.210;2022-11-14T06:03:52;5.45;;;3.28;;
529;SDS011;251;48.704;9.210;2022-11-14T06:06:37;4.57;;;4.13;;
529;SDS011;251;48.704;9.210;2022-11-14T06:09:23;3.58;;;3.05;;
529;SDS011;251;48.704;9.210;2022-11-14T06:12:08;4.80;;;3.58;;
529;SDS011;251;48.704;9.210;2022-11-14T06:14:55;4.65;;;3.08;;
529;SDS011;251;48.704;9.210;2022-11-14T06:17:40;10.60;;;6.13;;
529;SDS011;251;48.704;9.210;2022-11-14T06:20:25;7.85;;;4.70;;
529;SDS011;251;48.704;9.210;2022-11-14T06:23:11;9.73;;;5.93;;
529;SDS011;251;48.704;9.210;2022-11-14T06:25:57;8.30;;;3.97;;
529;SDS011;251;48.704;9.210;2022-11-14T06:28:43;5.45;;;3.67;;
529;SDS011;251;48.704;9.210;2022-11-14T06:31:30;11.48;;;4.72;;
529;SDS011;251;48.704;9.210;2022-11-14T06:34:15;6.22;;;4.72;;
529;SDS011;251;48.704;9.210;2022-11-14T06:37:01;9.07;;;4.47;;
529;SDS011;251;48.704;9.210;2022-11-14T06:39:48;10.40;;;5.55;;
529;SDS011;251;48.704;9.210;2022-11-14T06:42:33;4.07;;;2.97;;
529;SDS011;251;48.704;9.210;2022-11-14T06:45:19;6.22;;;3.53;;
529;SDS011;251;48.704;9.210;2022-11-14T06:48:06;4.03;;;2.63;;
529;SDS011;251;48.704;9.210;2022-11-14T06:50:52;5.18;;;4.13;;
529;SDS011;251;48.704;9.210;2022-11-14T06:53:38;5.45;;;4.80;;
529;SDS011;251;48.704;9.210;2022-11-14T06:56:24;7.05;;;4.75;;
529;SDS011;251;48.704;9.210;2022-11-14T06:59:10;7.25;;;4.07;;
529;SDS011;251;48.704;9.210;2022-11-14T07:01:56;5.18;;;3.15;;
529;SDS011;251;48.704;9.210;2022-11-14T07:04:42;3.85;;;2.88;;
529;SDS011;251;48.704;9.210;2022-11-14T07:07:28;4.10;;;3.42;;
529;SDS011;251;48.704;9.210;2022-11-14T07:10:14;4.95;;;3.75;;
529;SDS011;251;48.704;9.210;2022-11-14T07:12:59;7.85;;;4.00;;
529;SDS011;251;48.704;9.210;2022-11-14T07:15:48;4.00;;;3.65;;
529;SDS011;251;48.704;9.210;2022-11-14T07:18:35;4.80;;;4.13;;
529;SDS011;251;48.704;9.210;2022-11-14T07:21:21;4.13;;;3.72;;
529;SDS011;251;48.704;9.210;2022-11-14T07:24:08;5.85;;;3.28;;
529;SDS011;251;48.704;9.210;2022-11-14T07:26:53;6.30;;;3.85;;
529;SDS011;251;48.704;9.210;2022-11-14T07:29:38;4.35;;;3.53;;
529;SDS011;251;48.704;9.210;2022-11-14T07:32:23;4.80;;;3.55;;
529;SDS011;251;48.704;9.210;2022-11-14T07:35:09;3.33;;;3.00;;
529;SDS011;251;48.704;9.210;2022-11-14T07:38:00;5.15;;;4.15;;
529;SDS011;251;48.704;9.210;2022-11-14T07:40:53;3.88;;;3.47;;
529;SDS011;251;48.704;9.210;2022-11-14T07:43:39;5.63;;;4.55;;
529;SDS011;251;48.704;9.210;2022-11-14T07:46:25;4.18;;;2.75;;
529;SDS011;251;48.704;9.210;2022-11-14T07:49:11;5.03;;;3.85;;
529;SDS011;251;48.704;9.210;2022-11-14T07:51:56;5.63;;;3.20;;
529;SDS011;251;48.704;9.210;2022-11-14T07:54:43;5.70;;;4.80;;
529;SDS011;251;48.704;9.210;2022-11-14T07:57:28;5.45;;;3.47;;
529;SDS011;251;48.704;9.210;2022-11-14T08:00:14;4.75;;;3.58;;
529;SDS011;251;48.704;9.210;2022-11-14T08:03:00;5.05;;;3.85;;
529;SDS011;251;48.704;9.210;2022-11-14T08:05:45;6.93;;;5.47;;
529;SDS011;251;48.704;9.210;2022-11-14T08:08:30;6.10;;;4.05;;
529;SDS011;251;48.704;9.210;2022-11-14T08:11:17;4.32;;;3.17;;
529;SDS011;251;48.704;9.210;2022-11-14T08:14:23;5.95;;;3.75;;
529;SDS011;251;48.704;9.210;2022-11-14T08:17:09;6.80;;;4.78;;
529;SDS011;251;48.704;9.210;2022-11-14T08:19:54;5.18;;;4.22;;
529;SDS011;251;48.704;9.210;2022-11-14T08:22:39;5.93;;;4.07;;
529;SDS011;251;48.704;9.210;2022-11-14T08:25:25;4.32;;;3.50;;
529;SDS011;251;48.704;9.210;2022-11-14T08:28:12;5.50;;;4.75;;
529;SDS011;251;48.704;9.210;2022-11-14T08:30:58;6.55;;;4.40;;
529;SDS011;251;48.704;9.210;2022-11-14T08:33:44;7.47;;;5.10;;
529;SDS011;251;48.704;9.210;2022-11-14T08:36:32;6.03;;;5.13;;
529;SDS011;251;48.704;9.210;2022-11-14T08:39:18;6.15;;;3.15;;
529;SDS011;251;48.704;9.210;2022-11-14T08:42:03;6.30;;;3.25;;
529;SDS011;251;48.704;9.210;2022-11-14T08:44:50;4.15;;;3.58;;
529;SDS011;251;48.704;9.210;2022-11-14T08:47:35;3.97;;;3.50;;
529;SDS011;251;48.704;9.210;2022-11-14T08:50:21;7.45;;;5.13;;
529;SDS011;251;48.704;9.210;2022-11-14T08:53:07;5.05;;;4.47;;
529;SDS011;251;48.704;9.210;2022-11-14T08:55:52;28.08;;;4.95;;
529;SDS011;251;48.704;9.210;2022-11-14T08:58:37;6.80;;;5.22;;
529;SDS011;251;48.704;9.210;2022-11-14T09:01:24;7.45;;;6.57;;
529;SDS011;251;48.704;9.210;2022-11-14T09:04:10;6.43;;;4.50;;
529;SDS011;251;48.704;9.210;2022-11-14T09:06:55;5.65;;;5.03;;
529;SDS011;251;48.704;9.210;2022-11-14T09:09:42;8.73;;;5.15;;
529;SDS011;251;48.704;9.210;2022-11-14T09:12:28;6.40;;;5.75;;
529;SDS011;251;48.704;9.210;2022-11-14T09:15:13;5.45;;;3.60;;
529;SDS011;251;48.704;9.210;2022-11-14T09:18:00;5.03;;;4.15;;
529;SDS011;251;48.704;9.210;2022-11-14T09:20:46;7.72;;;6.85;;
529;SDS011;251;48.704;9.210;2022-11-14T09:23:32;6.65;;;5.50;;
529;SDS011;251;48.704;9.210;2022-11-14T09:26:17;8.98;;;5.82;;
529;SDS011;251;48.704;9.210;2022-11-14T09:29:03;7.88;;;5.72;;
529;SDS011;251;48.704;9.210;2022-11-14T09:31:50;4.15;;;3.75;;
529;SDS011;251;48.704;9.210;2022-11-14T09:34:37;5.38;;;4.72;;
529;SDS011;251;48.704;9.210;2022-11-14T09:37:26;4.95;;;4.30;;
529;SDS011;251;48.704;9.210;2022-11-14T09:40:11;5.38;;;4.80;;
529;SDS011;251;48.704;9.210;2022-11-14T09:43:01;5.97;;;4.43;;
529;SDS011;251;48.704;9.210;2022-11-14T09:45:57;5.22;;;3.90;;
529;SDS011;251;48.704;9.210;2022-11-14T09:48:43;7.00;;;3.90;;
529;SDS011;251;48.704;9.210;2022-11-14T09:51:30;13.38;;;5.43;;
529;SDS011;251;48.704;9.210;2022-11-14T09:54:19;5.88;;;4.35;;
529;SDS011;251;48.704;9.210;2022-11-14T09:57:09;5.97;;;4.38;;
529;SDS011;251;48.704;9.210;2022-11-14T09:59:58;5.00;;;3.60;;
529;SDS011;251;48.704;9.210;2022-11-14T10:02:51;10.20;;;6.03;;
529;SDS011;251;48.704;9.210;2022-11-14T10:05:54;9.65;;;5.50;;
529;SDS011;251;48.704;9.210;2022-11-14T10:08:58;7.95;;;5.75;;
529;SDS011;251;48.704;9.210;2022-11-14T10:11:51;6.45;;;3.83;;
529;SDS011;251;48.704;9.210;2022-11-14T10:14:55;6.00;;;4.60;;
529;SDS011;251;48.704;9.210;2022-11-14T10:17:58;7.93;;;5.03;;
529;SDS011;251;48.704;9.210;2022-11-14T10:20:54;8.57;;;5.30;;
529;SDS011;251;48.704;9.210;2022-11-14T10:23:46;8.60;;;4.03;;
529;SDS011;251;48.704;9.210;2022-11-14T10:26:42;6.00;;;4.47;;
529;SDS011;251;48.704;9.210;2022-11-14T10:29:40;9.13;;;4.38;;
529;SDS011;251;48.704;9.210;2022-11-14T10:32:42;11.65;;;4.78;;
529;SDS011;251;48.704;9.210;2022-11-14T10:35:39;5.30;;;3.20;;
529;SDS011;251;48.704;9.210;2022-11-14T10:38:31;4.05;;;2.88;;
529;SDS011;251;48.704;9.210;2022-11-14T10:41:20;5.00;;;4.32;;
529;SDS011;251;48.704;9.210;2022-11-14T10:44:10;4.80;;;4.28;;
529;SDS011;251;48.704;9.210;2022-11-14T10:47:02;4.03;;;3.50;;
529;SDS011;251;48.704;9.210;2022-11-14T10:49:51;4.15;;;3.75;;
529;SDS011;251;48.704;9.210;2022-11-14T10:52:42;4.90;;;3.03;;
529;SDS011;251;48.704;9.210;2022-11-14T10:55:29;5.70;;;5.20;;
529;SDS011;251;48.704;9.210;2022-11-14T10:58:14;2.75;;;2.55;;
529;SDS011;251;48.704;9.210;2022-11-14T11:04:19;6.15;;;3.60;;
529;SDS011;251;48.704;9.210;2022-11-14T11:07:19;5.57;;;5.05;;
529;SDS011;251;48.704;9.210;2022-11-14T11:10:24;4.70;;;3.45;;
529;SDS011;251;48.704;9.210;2022-11-14T11:13:29;3.88;;;3.58;;
529;SDS011;251;48.704;9.210;2022-11-14T11:16:18;9.15;;;4.75;;
529;SDS011;251;48.704;9.210;2022-11-14T11:19:21;5.45;;;4.03;;
529;SDS011;251;48.704;9.210;2022-11-14T11:22:22;4.35;;;3.20;;
529;SDS011;251;48.704;9.210;2022-11-14T11:25:22;4.75;;;3.88;;
529;SDS011;251;48.704;9.210;2022-11-14T11:28:11;12.60;;;3.20;;
529;SDS011;251;48.704;9.210;2022-11-14T11:30:58;2.33;;;1.65;;
529;SDS011;251;48.704;9.210;2022-11-14T11:33:45;1.90;;;1.23;;
529;SDS011;251;48.704;9.210;2022-11-14T11:36:31;1.80;;;1.10;;
529;SDS011;251;48.704;9.210;2022-11-14T11:39:22;1.75;;;0.95;;
529;SDS011;251;48.704;9.210;2022-11-14T11:42:13;1.70;;;1.10;;
529;SDS011;251;48.704;9.210;2022-11-14T11:45:04;2.10;;;1.30;;
529;SDS011;251;48.704;9.210;2022-11-14T11:47:58;2.05;;;1.10;;
529;SDS011;251;48.704;9.210;2022-11-14T11:50:48;8.15;;;1.73;;
529;SDS011;251;48.704;9.210;2022-11-14T11:53:37;2.78;;;1.58;;
529;SDS011;251;48.704;9.210;2022-11-14T11:56:25;1.92;;;1.58;;
529;SDS011;251;48.704;9.210;2022-11-14T11:59:18;2.90;;;2.45;;
529;SDS011;251;48.704;9.210;2022-11-14T12:02:15;4.53;;;1.60;;
529;SDS011;251;48.704;9.210;2022-11-14T12:05:06;1.60;;;1.33;;
529;SDS011;251;48.704;9.210;2022-11-14T12:07:57;3.67;;;2.08;;
529;SDS011;251;48.704;9.210;2022-11-14T12:10:48;4.72;;;1.95;;
529;SDS011;251;48.704;9.210;2022-11-14T12:13:42;2.05;;;1.25;;
529;SDS011;251;48.704;9.210;2022-11-14T12:19:59;2.55;;;1.85;;
529;SDS011;251;48.704;9.210;2022-11-14T12:23:14;2.58;;;2.22;;
529;SDS011;251;48.704;9.210;2022-11-14T12:26:26;3.17;;;1.90;;
529;SDS011;251;48.704;9.210;2022-11-14T12:29:24;2.00;;;1.25;;
529;SDS011;251;48.704;9.210;2022-11-14T12:32:24;1.83;;;1.27;;
529;SDS011;251;48.704;9.210;2022-11-14T12:35:16;3.67;;;2.15;;
529;SDS011;251;48.704;9.210;2022-11-14T12:38:13;1.90;;;1.33;;
529;SDS011;251;48.704;9.210;2022-11-14T12:41:02;2.35;;;1.55;;
529;SDS011;251;48.704;9.210;2022-11-14T12:43:49;2.13;;;1.25;;
529;SDS011;251;48.704;9.210;2022-11-14T12:49:57;2.25;;;1.73;;
529;SDS011;251;48.704;9.210;2022-11-14T12:52:45;2.80;;;2.00;;
529;SDS011;251;48.704;9.210;2022-11-14T12:55:55;2.17;;;1.85;;
529;SDS011;251;48.704;9.210;2022-11-14T12:59:02;1.70;;;1.40;;
529;SDS011;251;48.704;9.210;2022-11-14T13:05:21;2.63;;;2.42;;
529;SDS011;251;48.704;9.210;2022-11-14T13:08:21;2.83;;;2.40;;
529;SDS011;251;48.704;9.210;2022-11-14T13:11:38;2.13;;;1.67;;
529;SDS011;251;48.704;9.210;2022-11-14T13:14:51;2.45;;;1.42;;
529;SDS011;251;48.704;9.210;2022-11-14T13:18:02;3.22;;;1.80;;
529;SDS011;251;48.704;9.210;2022-11-14T13:21:17;2.10;;;1.77;;
529;SDS011;251;48.704;9.210;2022-11-14T13:24:23;1.90;;;1.42;;
529;SDS011;251;48.704;9.210;2022-11-14T13:30:14;3.45;;;1.75;;
529;SDS011;251;48.704;9.210;2022-11-14T13:32:59;4.95;;;2.17;;
529;SDS011;251;48.704;9.210;2022-11-14T13:35:49;2.13;;;1.50;;
529;SDS011;251;48.704;9.210;2022-11-14T13:38:55;6.05;;;2.00;;
529;SDS011;251;48.704;9.210;2022-11-14T13:52:03;3.15;;;1.77;;
529;SDS011;251;48.704;9.210;2022-11-14T13:54:48;3.10;;;1.88;;
529;SDS011;251;48.704;9.210;2022-11-14T13:57:38;4.03;;;2.10;;
529;SDS011;251;48.704;9.210;2022-11-14T14:00:40;4.95;;;2.80;;
529;SDS011;251;48.704;9.210;2022-11-14T14:03:47;2.10;;;1.70;;
529;SDS011;251;48.704;9.210;2022-11-14T14:06:46;3.03;;;2.53;;
529;SDS011;251;48.704;9.210;2022-11-14T14:09:39;3.13;;;1.60;;
529;SDS011;251;48.704;9.210;2022-11-14T14:12:37;6.32;;;3.50;;
529;SDS011;251;48.704;9.210;2022-11-14T14:15:31;4.35;;;2.58;;
529;SDS011;251;48.704;9.210;2022-11-14T14:18:26;2.55;;;2.35;;
529;SDS011;251;48.704;9.210;2022-11-14T14:21:25;2.15;;;1.50;;
529;SDS011;251;48.704;9.210;2022-11-14T14:24:30;2.30;;;1.77;;
529;SDS011;251;48.704;9.210;2022-11-14T14:27:25;3.40;;;1.88;;
529;SDS011;251;48.704;9.210;2022-11-14T14:30:15;3.08;;;1.65;;
529;SDS011;251;48.704;9.210;2022-11-14T14:33:11;2.72;;;2.00;;
529;SDS011;251;48.704;9.210;2022-11-14T14:35:59;2.72;;;2.40;;
529;SDS011;251;48.704;9.210;2022-11-14T14:38:44;3.42;;;2.80;;
529;SDS011;251;48.704;9.210;2022-11-14T14:41:31;3.22;;;2.38;;
529;SDS011;251;48.704;9.210;2022-11-14T14:44:19;3.85;;;1.40;;
529;SDS011;251;48.704;9.210;2022-11-14T14:47:14;3.28;;;2.95;;
529;SDS011;251;48.704;9.210;2022-11-14T14:50:01;3.97;;;3.22;;
529;SDS011;251;48.704;9.210;2022-11-14T14:52:55;2.83;;;2.05;;
529;SDS011;251;48.704;9.210;2022-11-14T14:55:49;3.80;;;2.25;;
529;SDS011;251;48.704;9.210;2022-11-14T14:58:36;3.80;;;2.42;;
529;SDS011;251;48.704;9.210;2022-11-14T15:01:22;4.63;;;3.05;;
529;SDS011;251;48.704;9.210;2022-11-14T15:04:12;2.83;;;2.30;;
529;SDS011;251;48.704;9.210;2022-11-14T15:06:59;1.90;;;1.60;;
529;SDS011;251;48.704;9.210;2022-11-14T15:09:53;3.60;;;2.58;;
529;SDS011;251;48.704;9.210;2022-11-14T15:12:39;1.75;;;1.30;;
529;SDS011;251;48.704;9.210;2022-11-14T15:15:26;8.05;;;4.78;;
529;SDS011;251;48.704;9.210;2022-11-14T15:18:15;6.03;;;5.13;;
529;SDS011;251;48.704;9.210;2022-11-14T15:21:06;6.65;;;2.65;;
529;SDS011;251;48.704;9.210;2022-11-14T15:23:57;1.83;;;1.05;;
529;SDS011;251;48.704;9.210;2022-11-14T15:26:45;2.42;;;1.45;;
529;SDS011;251;48.704;9.210;2022-11-14T15:29:33;2.25;;;1.48;;
529;SDS011;251;48.704;9.210;2022-11-14T15:32:20;2.00;;;1.30;;
529;SDS011;251;48.704;9.210;2022-11-14T15:35:08;6.18;;;1.73;;
529;SDS011;251;48.704;9.210;2022-11-14T15:38:05;2.30;;;1.80;;
529;SDS011;251;48.704;9.210;2022-11-14T15:41:16;3.15;;;2.40;;
529;SDS011;251;48.704;9.210;2022-11-14T15:44:05;2.08;;;1.30;;
529;SDS011;251;48.704;9.210;2022-11-14T15:47:10;2.53;;;1.67;;
529;SDS011;251;48.704;9.210;2022-11-14T15:49:58;2.05;;;1.50;;
529;SDS011;251;48.704;9.210;2022-11-14T15:52:45;2.42;;;1.50;;
529;SDS011;251;48.704;9.210;2022-11-14T15:55:33;5.25;;;1.90;;
529;SDS011;251;48.704;9.210;2022-11-14T15:58:19;3.40;;;1.70;;
529;SDS011;251;48.704;9.210;2022-11-14T16:01:07;3.92;;;2.80;;
529;SDS011;251;48.704;9.210;2022-11-14T16:03:59;9.10;;;5.18;;
529;SDS011;251;48.704;9.210;2022-11-14T16:06:45;5.93;;;4.20;;
529;SDS011;251;48.704;9.210;2022-11-14T16:09:31;4.28;;;3.25;;
529;SDS011;251;48.704;9.210;2022-11-14T16:12:17;6.05;;;2.00;;
529;SDS011;251;48.704;9.210;2022-11-14T16:15:02;4.75;;;2.35;;
529;SDS011;251;48.704;9.210;2022-11-14T16:17:49;6.18;;;2.05;;
529;SDS011;251;48.704;9.210;2022-11-14T16:20:35;2.63;;;2.25;;
529;SDS011;251;48.704;9.210;2022-11-14T16:23:22;7.10;;;2.63;;
529;SDS011;251;48.704;9.210;2022-11-14T16:26:07;3.60;;;1.90;;
529;SDS011;251;48.704;9.210;2022-11-14T16:28:52;4.50;;;2.30;;
529;SDS011;251;48.704;9.210;2022-11-14T16:31:40;3.08;;;2.75;;
529;SDS011;251;48.704;9.210;2022-11-14T16:34:26;3.90;;;2.95;;
529;SDS011;251;48.704;9.210;2022-11-14T16:37:12;3.38;;;2.75;;
529;SDS011;251;48.704;9.210;2022-11-14T16:39:58;4.38;;;3.17;;
529;SDS011;251;48.704;9.210;2022-11-14T16:42:43;6.38;;;4.25;;
529;SDS011;251;48.704;9.210;2022-11-14T16:45:29;8.48;;;4.03;;
529;SDS011;251;48.704;9.210;2022-11-14T16:48:15;3.72;;;2.45;;
529;SDS011;251;48.704;9.210;2022-11-14T16:51:02;2.50;;;2.28;;
529;SDS011;251;48.704;9.210;2022-11-14T16:53:52;3.05;;;2.75;;
529;SDS011;251;48.704;9.210;2022-11-14T16:56:38;4.18;;;3.10;;
529;SDS011;251;48.704;9.210;2022-11-14T16:59:24;7.68;;;3.70;;
529;SDS011;251;48.704;9.210;2022-11-14T17:02:10;3.75;;;2.83;;
529;SDS011;251;48.704;9.210;2022-11-14T17:04:58;5.68;;;4.93;;
529;SDS011;251;48.704;9.210;2022-11-14T17:07:45;5.20;;;4.50;;
529;SDS011;251;48.704;9.210;2022-11-14T17:10:30;4.97;;;3.78;;
529;SDS011;251;48.704;9.210;2022-11-14T17:13:16;4.57;;;3.25;;
529;SDS011;251;48.704;9.210;2022-11-14T17:16:01;4.45;;;3.10;;
529;SDS011;251;48.704;9.210;2022-11-14T17:18:49;7.30;;;4.40;;
529;SDS011;251;48.704;9.210;2022-11-14T17:21:36;5.15;;;3.22;;
529;SDS011;251;48.704;9.210;2022-11-14T17:24:23;6.03;;;3.40;;
529;SDS011;251;48.704;9.210;2022-11-14T17:27:08;5.20;;;3.30;;
529;SDS011;251;48.704;9.210;2022-11-14T17:29:55;5.68;;;3.72;;
529;SDS011;251;48.704;9.210;2022-11-14T17:32:41;5.63;;;4.25;;
529;SDS011;251;48.704;9.210;2022-11-14T17:35:26;5.75;;;3.80;;
529;SDS011;251;48.704;9.210;2022-11-14T17:38:11;6.78;;;3.55;;
529;SDS011;251;48.704;9.210;2022-11-14T17:40:58;5.38;;;3.10;;
529;SDS011;251;48.704;9.210;2022-11-14T17:43:44;5.20;;;3.25;;
529;SDS011;251;48.704;9.210;2022-11-14T17:46:30;4.07;;;2.70;;
529;SDS011;251;48.704;9.210;2022-11-14T17:49:15;4.03;;;2.53;;
529;SDS011;251;48.704;9.210;2022-11-14T17:52:01;2.05;;;1.55;;
529;SDS011;251;48.704;9.210;2022-11-14T17:54:46;2.10;;;1.70;;
529;SDS011;251;48.704;9.210;2022-11-14T17:57:33;1.88;;;1.23;;
529;SDS011;251;48.704;9.210;2022-11-14T18:00:19;2.10;;;1.50;;
529;SDS011;251;48.704;9.210;2022-11-14T18:03:04;18.10;;;2.53;;
529;SDS011;251;48.704;9.210;2022-11-14T18:05:50;2.50;;;1.80;;
529;SDS011;251;48.704;9.210;2022-11-14T18:08:35;2.80;;;2.20;;
529;SDS011;251;48.704;9.210;2022-11-14T18:11:21;3.67;;;2.45;;
529;SDS011;251;48.704;9.210;2022-11-14T18:14:08;3.13;;;2.05;;
529;SDS011;251;48.704;9.210;2022-11-14T18:16:53;3.22;;;2.92;;
529;SDS011;251;48.704;9.210;2022-11-14T18:19:38;2.50;;;1.85;;
529;SDS011;251;48.704;9.210;2022-11-14T18:22:24;3.25;;;2.88;;
529;SDS011;251;48.704;9.210;2022-11-14T18:25:10;3.63;;;2.65;;
529;SDS011;251;48.704;9.210;2022-11-14T18:27:56;7.18;;;2.55;;